sensor_id;sensor_type;location;lat;lon;timestamp;temperature;humidity
12841;DHT22;6487;48.626;12.486;2024-03-02T00:01:54;7.20;99.90
12841;DHT22;6487;48.626;12.486;2024-03-02T00:04:23;7.20;99.90
12841;DHT22;6487;48.626;12.486;2024-03-02T00:06:51;7.20;99.90
12841;DHT22;6487;48.626;12.486;2024-03-02T00:09:22;7.30;99.90
12841;DHT22;6487;48.626;12.486;2024-03-02T00:11:50;7.30;99.90
12841;DHT22;6487;48.626;12.486;2024-03-02T00:14:19;7.20;99.90
12841;DHT22;6487;48.626;12.486;2024-03-02T00:16:49;7.20;99.90
12841;DHT22;6487;48.626;12.486;2024-03-02T00:19:19;7.20;99.90
12841;DHT22;6487;48.626;12.486;2024-03-02T00:21:48;7.20;99.90
12841;DHT22;6487;48.626;12.486;2024-03-02T00:24:21;7.20;99.90
12841;DHT22;6487;48.626;12.486;2024-03-02T00:26:59;7.20;99.90
12841;DHT22;6487;48.626;12.486;2024-03-02T00:29:28;7.30;99.90
12841;DHT22;6487;48.626;12.486;2024-03-02T00:31:59;7.30;99.90
12841;DHT22;6487;48.626;12.486;2024-03-02T00:34:29;7.30;99.90
12841;DHT22;6487;48.626;12.486;2024-03-02T00:36:57;7.30;99.90
12841;DHT22;6487;48.626;12.486;2024-03-02T00:39:27;7.30;99.90
12841;DHT22;6487;48.626;12.486;2024-03-02T00:41:55;7.40;99.90
12841;DHT22;6487;48.626;12.486;2024-03-02T00:44:25;7.40;99.90
12841;DHT22;6487;48.626;12.486;2024-03-02T00:46:59;7.40;99.90
12841;DHT22;6487;48.626;12.486;2024-03-02T00:49:30;7.40;99.90
12841;DHT22;6487;48.626;12.486;2024-03-02T00:51:59;7.40;99.90
12841;DHT22;6487;48.626;12.486;2024-03-02T00:54:28;7.40;99.90
12841;DHT22;6487;48.626;12.486;2024-03-02T00:56:57;7.40;99.90
12841;DHT22;6487;48.626;12.486;2024-03-02T00:59:26;7.40;99.90
12841;DHT22;6487;48.626;12.486;2024-03-02T01:01:54;7.40;99.90
12841;DHT22;6487;48.626;12.486;2024-03-02T01:04:24;7.40;99.90
12841;DHT22;6487;48.626;12.486;2024-03-02T01:06:52;7.30;99.90
12841;DHT22;6487;48.626;12.486;2024-03-02T01:09:22;7.30;99.90
12841;DHT22;6487;48.626;12.486;2024-03-02T01:11:50;7.10;99.90
12841;DHT22;6487;48.626;12.486;2024-03-02T01:14:19;7.10;99.90
12841;DHT22;6487;48.626;12.486;2024-03-02T01:16:47;7.20;99.90
12841;DHT22;6487;48.626;12.486;2024-03-02T01:19:19;7.20;99.90
12841;DHT22;6487;48.626;12.486;2024-03-02T01:21:49;7.20;99.90
12841;DHT22;6487;48.626;12.486;2024-03-02T01:24:18;7.30;99.90
12841;DHT22;6487;48.626;12.486;2024-03-02T01:26:47;7.30;99.90
12841;DHT22;6487;48.626;12.486;2024-03-02T01:29:15;7.30;99.90
12841;DHT22;6487;48.626;12.486;2024-03-02T01:31:43;7.30;99.90
12841;DHT22;6487;48.626;12.486;2024-03-02T01:34:12;7.30;99.90
12841;DHT22;6487;48.626;12.486;2024-03-02T01:36:40;7.30;99.90
12841;DHT22;6487;48.626;12.486;2024-03-02T01:39:10;7.30;99.90
12841;DHT22;6487;48.626;12.486;2024-03-02T01:41:38;7.40;99.90
12841;DHT22;6487;48.626;12.486;2024-03-02T01:44:07;7.40;99.90
12841;DHT22;6487;48.626;12.486;2024-03-02T01:46:35;7.30;99.90
12841;DHT22;6487;48.626;12.486;2024-03-02T01:49:04;7.20;99.90
12841;DHT22;6487;48.626;12.486;2024-03-02T01:51:32;7.10;99.90
12841;DHT22;6487;48.626;12.486;2024-03-02T01:54:00;7.10;99.90
12841;DHT22;6487;48.626;12.486;2024-03-02T01:56:30;7.10;99.90
12841;DHT22;6487;48.626;12.486;2024-03-02T01:58:59;7.20;99.90
12841;DHT22;6487;48.626;12.486;2024-03-02T02:01:30;7.20;99.90
12841;DHT22;6487;48.626;12.486;2024-03-02T02:03:59;7.10;99.90
12841;DHT22;6487;48.626;12.486;2024-03-02T02:06:28;7.10;99.90
12841;DHT22;6487;48.626;12.486;2024-03-02T02:08:56;7.20;99.90
12841;DHT22;6487;48.626;12.486;2024-03-02T02:11:25;7.10;99.90
12841;DHT22;6487;48.626;12.486;2024-03-02T02:13:55;7.20;99.90
12841;DHT22;6487;48.626;12.486;2024-03-02T02:16:23;7.20;99.90
12841;DHT22;6487;48.626;12.486;2024-03-02T02:18:52;7.20;99.90
12841;DHT22;6487;48.626;12.486;2024-03-02T02:21:24;7.20;99.90
12841;DHT22;6487;48.626;12.486;2024-03-02T02:23:53;7.20;99.90
12841;DHT22;6487;48.626;12.486;2024-03-02T02:26:21;7.10;99.90
12841;DHT22;6487;48.626;12.486;2024-03-02T02:28:52;7.10;99.90
12841;DHT22;6487;48.626;12.486;2024-03-02T02:31:21;7.10;99.90
12841;DHT22;6487;48.626;12.486;2024-03-02T02:33:49;7.10;99.90
12841;DHT22;6487;48.626;12.486;2024-03-02T02:36:17;7.10;99.90
12841;DHT22;6487;48.626;12.486;2024-03-02T02:38:48;7.10;99.90
12841;DHT22;6487;48.626;12.486;2024-03-02T02:41:17;7.00;99.90
12841;DHT22;6487;48.626;12.486;2024-03-02T02:43:48;7.00;99.90
12841;DHT22;6487;48.626;12.486;2024-03-02T02:46:17;7.00;99.90
12841;DHT22;6487;48.626;12.486;2024-03-02T02:48:48;6.90;99.90
12841;DHT22;6487;48.626;12.486;2024-03-02T02:51:20;6.90;99.90
12841;DHT22;6487;48.626;12.486;2024-03-02T02:53:50;6.80;99.90
12841;DHT22;6487;48.626;12.486;2024-03-02T02:56:18;6.90;99.90
12841;DHT22;6487;48.626;12.486;2024-03-02T02:58:47;6.90;99.90
12841;DHT22;6487;48.626;12.486;2024-03-02T03:01:18;6.80;99.90
12841;DHT22;6487;48.626;12.486;2024-03-02T03:03:47;6.80;99.90
12841;DHT22;6487;48.626;12.486;2024-03-02T03:06:15;6.80;99.90
12841;DHT22;6487;48.626;12.486;2024-03-02T03:08:44;6.70;99.90
12841;DHT22;6487;48.626;12.486;2024-03-02T03:11:14;6.70;99.90
12841;DHT22;6487;48.626;12.486;2024-03-02T03:13:45;6.60;99.90
12841;DHT22;6487;48.626;12.486;2024-03-02T03:16:13;6.60;99.90
12841;DHT22;6487;48.626;12.486;2024-03-02T03:18:42;6.70;99.90
12841;DHT22;6487;48.626;12.486;2024-03-02T03:21:10;6.60;99.90
12841;DHT22;6487;48.626;12.486;2024-03-02T03:23:39;6.70;99.90
12841;DHT22;6487;48.626;12.486;2024-03-02T03:26:07;6.70;99.90
12841;DHT22;6487;48.626;12.486;2024-03-02T03:28:37;6.70;99.90
12841;DHT22;6487;48.626;12.486;2024-03-02T03:31:05;6.60;99.90
12841;DHT22;6487;48.626;12.486;2024-03-02T03:33:33;6.50;99.90
12841;DHT22;6487;48.626;12.486;2024-03-02T03:36:02;6.60;99.90
12841;DHT22;6487;48.626;12.486;2024-03-02T03:38:31;6.60;99.90
12841;DHT22;6487;48.626;12.486;2024-03-02T03:41:00;6.60;99.90
12841;DHT22;6487;48.626;12.486;2024-03-02T03:43:31;6.60;99.90
12841;DHT22;6487;48.626;12.486;2024-03-02T03:46:00;6.60;99.90
12841;DHT22;6487;48.626;12.486;2024-03-02T03:48:31;6.60;99.90
12841;DHT22;6487;48.626;12.486;2024-03-02T03:51:00;6.60;99.90
12841;DHT22;6487;48.626;12.486;2024-03-02T03:53:28;6.60;99.90
12841;DHT22;6487;48.626;12.486;2024-03-02T03:55:57;6.60;99.90
12841;DHT22;6487;48.626;12.486;2024-03-02T03:58:25;6.60;99.90
12841;DHT22;6487;48.626;12.486;2024-03-02T04:00:54;6.50;99.90
12841;DHT22;6487;48.626;12.486;2024-03-02T04:03:24;6.60;99.90
12841;DHT22;6487;48.626;12.486;2024-03-02T04:05:56;6.60;99.90
12841;DHT22;6487;48.626;12.486;2024-03-02T04:08:24;6.50;99.90
12841;DHT22;6487;48.626;12.486;2024-03-02T04:10:53;6.50;99.90
12841;DHT22;6487;48.626;12.486;2024-03-02T04:13:22;6.50;99.90
12841;DHT22;6487;48.626;12.486;2024-03-02T04:15:50;6.40;99.90
12841;DHT22;6487;48.626;12.486;2024-03-02T04:18:19;6.40;99.90
12841;DHT22;6487;48.626;12.486;2024-03-02T04:20:49;6.40;99.90
12841;DHT22;6487;48.626;12.486;2024-03-02T04:23:20;6.50;99.90
12841;DHT22;6487;48.626;12.486;2024-03-02T04:25:48;6.50;99.90
12841;DHT22;6487;48.626;12.486;2024-03-02T04:28:16;6.60;99.90
12841;DHT22;6487;48.626;12.486;2024-03-02T04:30:47;6.60;99.90
12841;DHT22;6487;48.626;12.486;2024-03-02T04:33:16;6.60;99.90
12841;DHT22;6487;48.626;12.486;2024-03-02T04:35:44;6.70;99.90
12841;DHT22;6487;48.626;12.486;2024-03-02T04:38:14;6.70;99.90
12841;DHT22;6487;48.626;12.486;2024-03-02T04:40:43;6.70;99.90
12841;DHT22;6487;48.626;12.486;2024-03-02T04:43:11;6.70;99.90
12841;DHT22;6487;48.626;12.486;2024-03-02T04:45:43;6.70;99.90
12841;DHT22;6487;48.626;12.486;2024-03-02T04:48:12;6.70;99.90
12841;DHT22;6487;48.626;12.486;2024-03-02T04:50:41;6.60;99.90
12841;DHT22;6487;48.626;12.486;2024-03-02T04:53:09;6.60;99.90
12841;DHT22;6487;48.626;12.486;2024-03-02T04:55:39;6.60;99.90
12841;DHT22;6487;48.626;12.486;2024-03-02T04:58:21;6.60;99.90
12841;DHT22;6487;48.626;12.486;2024-03-02T05:00:50;6.70;99.90
12841;DHT22;6487;48.626;12.486;2024-03-02T05:03:18;6.70;99.90
12841;DHT22;6487;48.626;12.486;2024-03-02T05:05:46;6.80;99.90
12841;DHT22;6487;48.626;12.486;2024-03-02T05:08:15;6.70;99.90
12841;DHT22;6487;48.626;12.486;2024-03-02T05:10:48;6.60;99.90
12841;DHT22;6487;48.626;12.486;2024-03-02T05:13:16;6.60;99.90
12841;DHT22;6487;48.626;12.486;2024-03-02T05:15:45;6.70;99.90
12841;DHT22;6487;48.626;12.486;2024-03-02T05:18:13;6.60;99.90
12841;DHT22;6487;48.626;12.486;2024-03-02T05:20:42;6.50;99.90
12841;DHT22;6487;48.626;12.486;2024-03-02T05:23:10;6.50;99.90
12841;DHT22;6487;48.626;12.486;2024-03-02T05:25:39;6.60;99.90
12841;DHT22;6487;48.626;12.486;2024-03-02T05:28:09;6.60;99.90
12841;DHT22;6487;48.626;12.486;2024-03-02T05:30:37;6.60;99.90
12841;DHT22;6487;48.626;12.486;2024-03-02T05:33:06;6.60;99.90
12841;DHT22;6487;48.626;12.486;2024-03-02T05:35:34;6.60;99.90
12841;DHT22;6487;48.626;12.486;2024-03-02T05:38:03;6.60;99.90
12841;DHT22;6487;48.626;12.486;2024-03-02T05:40:31;6.40;99.90
12841;DHT22;6487;48.626;12.486;2024-03-02T05:43:00;6.40;99.90
12841;DHT22;6487;48.626;12.486;2024-03-02T05:45:29;6.40;99.90
12841;DHT22;6487;48.626;12.486;2024-03-02T05:47:58;6.50;99.90
12841;DHT22;6487;48.626;12.486;2024-03-02T05:50:26;6.50;99.90
12841;DHT22;6487;48.626;12.486;2024-03-02T05:52:57;6.40;99.90
12841;DHT22;6487;48.626;12.486;2024-03-02T05:55:26;6.40;99.90
12841;DHT22;6487;48.626;12.486;2024-03-02T05:57:54;6.50;99.90
12841;DHT22;6487;48.626;12.486;2024-03-02T06:00:42;6.50;99.90
12841;DHT22;6487;48.626;12.486;2024-03-02T06:03:11;6.50;99.90
12841;DHT22;6487;48.626;12.486;2024-03-02T06:05:39;6.50;99.90
12841;DHT22;6487;48.626;12.486;2024-03-02T06:08:08;6.40;99.90
12841;DHT22;6487;48.626;12.486;2024-03-02T06:10:36;6.50;99.90
12841;DHT22;6487;48.626;12.486;2024-03-02T06:13:04;6.60;99.90
12841;DHT22;6487;48.626;12.486;2024-03-02T06:15:33;6.60;99.90
12841;DHT22;6487;48.626;12.486;2024-03-02T06:18:05;6.60;99.90
12841;DHT22;6487;48.626;12.486;2024-03-02T06:20:34;6.60;99.90
12841;DHT22;6487;48.626;12.486;2024-03-02T06:23:04;6.70;99.90
12841;DHT22;6487;48.626;12.486;2024-03-02T06:25:32;6.60;99.90
12841;DHT22;6487;48.626;12.486;2024-03-02T06:28:00;6.60;99.90
12841;DHT22;6487;48.626;12.486;2024-03-02T06:30:31;6.60;99.90
12841;DHT22;6487;48.626;12.486;2024-03-02T06:32:59;6.70;99.90
12841;DHT22;6487;48.626;12.486;2024-03-02T06:35:29;6.70;99.90
12841;DHT22;6487;48.626;12.486;2024-03-02T06:37:58;6.70;99.90
12841;DHT22;6487;48.626;12.486;2024-03-02T06:40:26;6.70;99.90
12841;DHT22;6487;48.626;12.486;2024-03-02T06:42:54;6.70;99.90
12841;DHT22;6487;48.626;12.486;2024-03-02T06:45:23;6.80;99.90
12841;DHT22;6487;48.626;12.486;2024-03-02T06:47:51;6.80;99.90
12841;DHT22;6487;48.626;12.486;2024-03-02T06:50:20;6.70;99.90
12841;DHT22;6487;48.626;12.486;2024-03-02T06:52:50;6.60;99.90
12841;DHT22;6487;48.626;12.486;2024-03-02T06:55:18;6.70;99.90
12841;DHT22;6487;48.626;12.486;2024-03-02T06:57:53;6.70;99.90
12841;DHT22;6487;48.626;12.486;2024-03-02T07:00:21;6.70;99.90
12841;DHT22;6487;48.626;12.486;2024-03-02T07:02:51;6.80;99.90
12841;DHT22;6487;48.626;12.486;2024-03-02T07:05:19;6.80;99.90
12841;DHT22;6487;48.626;12.486;2024-03-02T07:07:49;6.80;99.90
12841;DHT22;6487;48.626;12.486;2024-03-02T07:10:20;6.90;99.90
12841;DHT22;6487;48.626;12.486;2024-03-02T07:12:48;6.90;99.90
12841;DHT22;6487;48.626;12.486;2024-03-02T07:15:17;6.90;99.90
12841;DHT22;6487;48.626;12.486;2024-03-02T07:17:59;6.90;99.90
12841;DHT22;6487;48.626;12.486;2024-03-02T07:20:30;6.90;99.90
12841;DHT22;6487;48.626;12.486;2024-03-02T07:23:00;6.90;99.90
12841;DHT22;6487;48.626;12.486;2024-03-02T07:25:28;7.00;99.90
12841;DHT22;6487;48.626;12.486;2024-03-02T07:28:00;7.00;99.90
12841;DHT22;6487;48.626;12.486;2024-03-02T07:30:28;7.00;99.90
12841;DHT22;6487;48.626;12.486;2024-03-02T07:32:59;6.90;99.90
12841;DHT22;6487;48.626;12.486;2024-03-02T07:35:34;6.70;99.90
12841;DHT22;6487;48.626;12.486;2024-03-02T07:38:04;6.70;99.90
12841;DHT22;6487;48.626;12.486;2024-03-02T07:40:32;6.60;99.90
12841;DHT22;6487;48.626;12.486;2024-03-02T07:43:01;6.70;99.90
12841;DHT22;6487;48.626;12.486;2024-03-02T07:45:32;6.70;99.90
12841;DHT22;6487;48.626;12.486;2024-03-02T07:48:01;6.40;99.90
12841;DHT22;6487;48.626;12.486;2024-03-02T07:50:30;6.40;99.90
12841;DHT22;6487;48.626;12.486;2024-03-02T07:53:06;6.40;99.90
12841;DHT22;6487;48.626;12.486;2024-03-02T07:55:35;6.40;99.90
12841;DHT22;6487;48.626;12.486;2024-03-02T07:58:04;6.30;99.90
12841;DHT22;6487;48.626;12.486;2024-03-02T08:00:33;6.40;99.90
12841;DHT22;6487;48.626;12.486;2024-03-02T08:03:02;6.40;99.90
12841;DHT22;6487;48.626;12.486;2024-03-02T08:05:30;6.30;99.90
12841;DHT22;6487;48.626;12.486;2024-03-02T08:07:59;6.30;99.90
12841;DHT22;6487;48.626;12.486;2024-03-02T08:10:28;6.40;99.90
12841;DHT22;6487;48.626;12.486;2024-03-02T08:13:00;6.50;99.90
12841;DHT22;6487;48.626;12.486;2024-03-02T08:15:29;6.40;99.90
12841;DHT22;6487;48.626;12.486;2024-03-02T08:17:57;6.50;99.90
12841;DHT22;6487;48.626;12.486;2024-03-02T08:20:26;6.50;99.90
12841;DHT22;6487;48.626;12.486;2024-03-02T08:22:59;6.50;99.90
12841;DHT22;6487;48.626;12.486;2024-03-02T08:25:29;6.50;99.90
12841;DHT22;6487;48.626;12.486;2024-03-02T08:27:58;6.60;99.90
12841;DHT22;6487;48.626;12.486;2024-03-02T08:30:27;6.60;99.90
12841;DHT22;6487;48.626;12.486;2024-03-02T08:32:55;6.60;99.90
12841;DHT22;6487;48.626;12.486;2024-03-02T08:35:24;6.50;99.90
12841;DHT22;6487;48.626;12.486;2024-03-02T08:37:52;6.40;99.90
12841;DHT22;6487;48.626;12.486;2024-03-02T08:40:20;6.40;99.90
12841;DHT22;6487;48.626;12.486;2024-03-02T08:42:50;6.40;99.90
12841;DHT22;6487;48.626;12.486;2024-03-02T08:45:19;6.40;99.90
12841;DHT22;6487;48.626;12.486;2024-03-02T08:47:48;6.50;99.90
12841;DHT22;6487;48.626;12.486;2024-03-02T08:50:16;6.50;99.90
12841;DHT22;6487;48.626;12.486;2024-03-02T08:52:45;6.60;99.90
12841;DHT22;6487;48.626;12.486;2024-03-02T08:55:13;6.60;99.90
12841;DHT22;6487;48.626;12.486;2024-03-02T08:57:42;6.60;99.90
12841;DHT22;6487;48.626;12.486;2024-03-02T09:00:12;6.80;99.90
12841;DHT22;6487;48.626;12.486;2024-03-02T09:02:41;6.80;99.90
12841;DHT22;6487;48.626;12.486;2024-03-02T09:05:09;6.70;99.90
12841;DHT22;6487;48.626;12.486;2024-03-02T09:07:38;6.80;99.90
12841;DHT22;6487;48.626;12.486;2024-03-02T09:10:08;6.90;99.90
12841;DHT22;6487;48.626;12.486;2024-03-02T09:12:37;6.90;99.90
12841;DHT22;6487;48.626;12.486;2024-03-02T09:15:07;6.80;99.90
12841;DHT22;6487;48.626;12.486;2024-03-02T09:17:37;6.80;99.90
12841;DHT22;6487;48.626;12.486;2024-03-02T09:20:06;6.80;99.90
12841;DHT22;6487;48.626;12.486;2024-03-02T09:22:36;6.90;99.90
12841;DHT22;6487;48.626;12.486;2024-03-02T09:25:04;7.00;99.90
12841;DHT22;6487;48.626;12.486;2024-03-02T09:27:36;7.00;99.90
12841;DHT22;6487;48.626;12.486;2024-03-02T09:30:07;7.10;99.90
12841;DHT22;6487;48.626;12.486;2024-03-02T09:32:38;7.20;99.90
12841;DHT22;6487;48.626;12.486;2024-03-02T09:35:07;7.20;99.90
12841;DHT22;6487;48.626;12.486;2024-03-02T09:37:36;7.20;99.90
12841;DHT22;6487;48.626;12.486;2024-03-02T09:40:06;7.20;99.90
12841;DHT22;6487;48.626;12.486;2024-03-02T09:42:35;7.30;99.90
12841;DHT22;6487;48.626;12.486;2024-03-02T09:45:05;7.30;99.90
12841;DHT22;6487;48.626;12.486;2024-03-02T09:47:33;7.20;99.90
12841;DHT22;6487;48.626;12.486;2024-03-02T09:50:04;7.30;99.90
12841;DHT22;6487;48.626;12.486;2024-03-02T09:52:33;7.30;99.90
12841;DHT22;6487;48.626;12.486;2024-03-02T09:55:02;7.30;99.90
12841;DHT22;6487;48.626;12.486;2024-03-02T09:57:32;7.40;99.90
12841;DHT22;6487;48.626;12.486;2024-03-02T10:00:01;7.50;99.90
12841;DHT22;6487;48.626;12.486;2024-03-02T10:02:29;7.50;99.90
12841;DHT22;6487;48.626;12.486;2024-03-02T10:04:58;7.60;99.90
12841;DHT22;6487;48.626;12.486;2024-03-02T10:07:28;7.70;99.90
12841;DHT22;6487;48.626;12.486;2024-03-02T10:09:57;7.60;99.90
12841;DHT22;6487;48.626;12.486;2024-03-02T10:12:26;7.70;99.90
12841;DHT22;6487;48.626;12.486;2024-03-02T10:15:03;7.70;99.90
12841;DHT22;6487;48.626;12.486;2024-03-02T10:17:34;7.70;99.90
12841;DHT22;6487;48.626;12.486;2024-03-02T10:20:23;7.70;99.90
12841;DHT22;6487;48.626;12.486;2024-03-02T10:22:54;7.70;99.90
12841;DHT22;6487;48.626;12.486;2024-03-02T10:25:30;7.80;99.90
12841;DHT22;6487;48.626;12.486;2024-03-02T10:28:16;7.90;99.90
12841;DHT22;6487;48.626;12.486;2024-03-02T10:30:47;7.90;99.90
12841;DHT22;6487;48.626;12.486;2024-03-02T10:33:17;7.90;99.90
12841;DHT22;6487;48.626;12.486;2024-03-02T10:35:48;8.00;99.90
12841;DHT22;6487;48.626;12.486;2024-03-02T10:38:18;8.10;99.90
12841;DHT22;6487;48.626;12.486;2024-03-02T10:40:47;8.20;99.90
12841;DHT22;6487;48.626;12.486;2024-03-02T10:43:17;8.20;99.90
12841;DHT22;6487;48.626;12.486;2024-03-02T10:45:49;8.10;99.90
12841;DHT22;6487;48.626;12.486;2024-03-02T10:48:18;8.20;99.90
12841;DHT22;6487;48.626;12.486;2024-03-02T10:50:48;8.10;99.90
12841;DHT22;6487;48.626;12.486;2024-03-02T10:53:19;8.10;99.90
12841;DHT22;6487;48.626;12.486;2024-03-02T10:55:51;8.10;99.90
12841;DHT22;6487;48.626;12.486;2024-03-02T10:58:32;8.20;99.90
12841;DHT22;6487;48.626;12.486;2024-03-02T11:01:03;8.20;99.90
12841;DHT22;6487;48.626;12.486;2024-03-02T11:03:35;8.30;99.90
12841;DHT22;6487;48.626;12.486;2024-03-02T11:06:08;8.30;99.90
12841;DHT22;6487;48.626;12.486;2024-03-02T11:08:40;8.30;99.90
12841;DHT22;6487;48.626;12.486;2024-03-02T11:11:15;8.30;99.90
12841;DHT22;6487;48.626;12.486;2024-03-02T11:13:49;8.40;99.90
12841;DHT22;6487;48.626;12.486;2024-03-02T11:16:27;8.50;99.90
12841;DHT22;6487;48.626;12.486;2024-03-02T11:19:03;8.40;99.90
12841;DHT22;6487;48.626;12.486;2024-03-02T11:21:33;8.40;99.90
12841;DHT22;6487;48.626;12.486;2024-03-02T11:24:31;8.40;99.90
12841;DHT22;6487;48.626;12.486;2024-03-02T11:27:06;8.60;99.90
12841;DHT22;6487;48.626;12.486;2024-03-02T11:29:45;8.70;99.90
12841;DHT22;6487;48.626;12.486;2024-03-02T11:32:15;8.70;99.90
12841;DHT22;6487;48.626;12.486;2024-03-02T11:34:49;8.70;99.90
12841;DHT22;6487;48.626;12.486;2024-03-02T11:37:19;8.80;99.90
12841;DHT22;6487;48.626;12.486;2024-03-02T11:39:50;9.00;99.90
12841;DHT22;6487;48.626;12.486;2024-03-02T11:42:19;9.00;99.90
12841;DHT22;6487;48.626;12.486;2024-03-02T11:44:48;9.20;99.90
12841;DHT22;6487;48.626;12.486;2024-03-02T11:47:17;9.40;99.90
12841;DHT22;6487;48.626;12.486;2024-03-02T11:49:49;9.50;99.90
12841;DHT22;6487;48.626;12.486;2024-03-02T11:52:19;9.70;99.90
12841;DHT22;6487;48.626;12.486;2024-03-02T11:54:49;9.70;99.90
12841;DHT22;6487;48.626;12.486;2024-03-02T11:57:20;9.70;99.90
12841;DHT22;6487;48.626;12.486;2024-03-02T11:59:49;9.70;99.90
12841;DHT22;6487;48.626;12.486;2024-03-02T12:02:20;9.60;99.90
12841;DHT22;6487;48.626;12.486;2024-03-02T12:04:49;9.70;99.90
12841;DHT22;6487;48.626;12.486;2024-03-02T12:07:19;9.70;99.90
12841;DHT22;6487;48.626;12.486;2024-03-02T12:09:59;9.60;99.90
12841;DHT22;6487;48.626;12.486;2024-03-02T12:12:29;9.60;99.90
12841;DHT22;6487;48.626;12.486;2024-03-02T12:14:57;9.60;99.90
12841;DHT22;6487;48.626;12.486;2024-03-02T12:17:27;9.70;99.90
12841;DHT22;6487;48.626;12.486;2024-03-02T12:19:57;9.70;99.90
12841;DHT22;6487;48.626;12.486;2024-03-02T12:22:26;9.70;99.90
12841;DHT22;6487;48.626;12.486;2024-03-02T12:24:56;9.70;99.90
12841;DHT22;6487;48.626;12.486;2024-03-02T12:27:24;9.70;99.90
12841;DHT22;6487;48.626;12.486;2024-03-02T12:29:53;9.90;99.90
12841;DHT22;6487;48.626;12.486;2024-03-02T12:32:22;10.10;99.90
12841;DHT22;6487;48.626;12.486;2024-03-02T12:34:51;10.20;99.90
12841;DHT22;6487;48.626;12.486;2024-03-02T12:37:19;10.20;99.90
12841;DHT22;6487;48.626;12.486;2024-03-02T12:39:48;10.50;99.90
12841;DHT22;6487;48.626;12.486;2024-03-02T12:42:18;10.50;99.90
12841;DHT22;6487;48.626;12.486;2024-03-02T12:44:46;10.70;99.90
12841;DHT22;6487;48.626;12.486;2024-03-02T12:47:15;10.80;99.90
12841;DHT22;6487;48.626;12.486;2024-03-02T12:49:43;11.00;99.90
12841;DHT22;6487;48.626;12.486;2024-03-02T12:52:13;11.20;99.90
12841;DHT22;6487;48.626;12.486;2024-03-02T12:54:41;11.30;99.90
12841;DHT22;6487;48.626;12.486;2024-03-02T12:57:10;11.40;99.90
12841;DHT22;6487;48.626;12.486;2024-03-02T12:59:45;11.60;99.90
12841;DHT22;6487;48.626;12.486;2024-03-02T13:02:17;11.80;99.90
12841;DHT22;6487;48.626;12.486;2024-03-02T13:04:52;11.90;99.90
12841;DHT22;6487;48.626;12.486;2024-03-02T13:07:23;12.10;99.90
12841;DHT22;6487;48.626;12.486;2024-03-02T13:09:52;12.40;99.90
12841;DHT22;6487;48.626;12.486;2024-03-02T13:12:23;12.70;99.90
12841;DHT22;6487;48.626;12.486;2024-03-02T13:14:53;12.90;99.90
12841;DHT22;6487;48.626;12.486;2024-03-02T13:17:22;13.10;99.90
12841;DHT22;6487;48.626;12.486;2024-03-02T13:19:52;13.20;99.90
12841;DHT22;6487;48.626;12.486;2024-03-02T13:22:21;13.30;99.90
12841;DHT22;6487;48.626;12.486;2024-03-02T13:24:50;13.40;99.90
12841;DHT22;6487;48.626;12.486;2024-03-02T13:27:19;13.40;99.90
12841;DHT22;6487;48.626;12.486;2024-03-02T13:29:48;13.50;99.90
12841;DHT22;6487;48.626;12.486;2024-03-02T13:32:18;13.50;99.90
12841;DHT22;6487;48.626;12.486;2024-03-02T13:34:50;13.40;99.90
12841;DHT22;6487;48.626;12.486;2024-03-02T13:37:20;13.40;99.90
12841;DHT22;6487;48.626;12.486;2024-03-02T13:39:49;13.50;99.90
12841;DHT22;6487;48.626;12.486;2024-03-02T13:42:17;13.40;99.90
12841;DHT22;6487;48.626;12.486;2024-03-02T13:44:46;13.40;99.90
12841;DHT22;6487;48.626;12.486;2024-03-02T13:47:19;13.20;99.90
12841;DHT22;6487;48.626;12.486;2024-03-02T13:49:48;13.20;99.90
12841;DHT22;6487;48.626;12.486;2024-03-02T13:52:17;13.30;99.90
12841;DHT22;6487;48.626;12.486;2024-03-02T13:54:46;13.40;99.90
12841;DHT22;6487;48.626;12.486;2024-03-02T13:57:15;13.50;99.90
12841;DHT22;6487;48.626;12.486;2024-03-02T13:59:50;13.50;99.90
12841;DHT22;6487;48.626;12.486;2024-03-02T14:02:21;13.40;99.90
12841;DHT22;6487;48.626;12.486;2024-03-02T14:04:50;13.50;99.90
12841;DHT22;6487;48.626;12.486;2024-03-02T14:07:18;13.50;99.90
12841;DHT22;6487;48.626;12.486;2024-03-02T14:09:46;13.30;99.90
12841;DHT22;6487;48.626;12.486;2024-03-02T14:12:15;13.30;99.90
12841;DHT22;6487;48.626;12.486;2024-03-02T14:14:43;13.30;99.90
12841;DHT22;6487;48.626;12.486;2024-03-02T14:17:12;13.40;99.90
12841;DHT22;6487;48.626;12.486;2024-03-02T14:19:44;13.20;99.90
12841;DHT22;6487;48.626;12.486;2024-03-02T14:22:12;13.20;99.90
12841;DHT22;6487;48.626;12.486;2024-03-02T14:24:44;13.00;99.90
12841;DHT22;6487;48.626;12.486;2024-03-02T14:27:13;13.00;99.90
12841;DHT22;6487;48.626;12.486;2024-03-02T14:29:58;13.00;99.90
12841;DHT22;6487;48.626;12.486;2024-03-02T14:32:27;12.80;99.90
12841;DHT22;6487;48.626;12.486;2024-03-02T14:34:57;12.70;99.90
12841;DHT22;6487;48.626;12.486;2024-03-02T14:37:26;12.80;99.90
12841;DHT22;6487;48.626;12.486;2024-03-02T14:39:54;12.70;99.90
12841;DHT22;6487;48.626;12.486;2024-03-02T14:42:23;12.70;99.90
12841;DHT22;6487;48.626;12.486;2024-03-02T14:44:52;12.70;99.90
12841;DHT22;6487;48.626;12.486;2024-03-02T14:47:20;12.70;99.90
12841;DHT22;6487;48.626;12.486;2024-03-02T14:49:49;12.70;99.90
12841;DHT22;6487;48.626;12.486;2024-03-02T14:52:19;12.80;99.90
12841;DHT22;6487;48.626;12.486;2024-03-02T14:54:47;12.80;99.90
12841;DHT22;6487;48.626;12.486;2024-03-02T14:57:16;12.70;99.90
12841;DHT22;6487;48.626;12.486;2024-03-02T14:59:44;12.70;99.90
12841;DHT22;6487;48.626;12.486;2024-03-02T15:02:13;12.50;99.90
12841;DHT22;6487;48.626;12.486;2024-03-02T15:04:41;12.60;99.90
12841;DHT22;6487;48.626;12.486;2024-03-02T15:07:11;12.60;99.90
12841;DHT22;6487;48.626;12.486;2024-03-02T15:09:41;12.50;99.90
12841;DHT22;6487;48.626;12.486;2024-03-02T15:12:10;12.60;99.90
12841;DHT22;6487;48.626;12.486;2024-03-02T15:14:41;12.60;99.90
12841;DHT22;6487;48.626;12.486;2024-03-02T15:17:13;12.60;99.90
12841;DHT22;6487;48.626;12.486;2024-03-02T15:19:42;12.60;99.90
12841;DHT22;6487;48.626;12.486;2024-03-02T15:22:11;12.50;99.90
12841;DHT22;6487;48.626;12.486;2024-03-02T15:24:42;12.40;99.90
12841;DHT22;6487;48.626;12.486;2024-03-02T15:27:10;12.40;99.90
12841;DHT22;6487;48.626;12.486;2024-03-02T15:29:39;12.50;99.90
12841;DHT22;6487;48.626;12.486;2024-03-02T15:32:07;12.50;99.90
12841;DHT22;6487;48.626;12.486;2024-03-02T15:34:36;12.40;99.90
12841;DHT22;6487;48.626;12.486;2024-03-02T15:37:05;12.30;99.90
12841;DHT22;6487;48.626;12.486;2024-03-02T15:39:33;12.30;99.90
12841;DHT22;6487;48.626;12.486;2024-03-02T15:42:04;12.30;99.90
12841;DHT22;6487;48.626;12.486;2024-03-02T15:44:32;12.30;99.90
12841;DHT22;6487;48.626;12.486;2024-03-02T15:47:01;12.30;99.90
12841;DHT22;6487;48.626;12.486;2024-03-02T15:49:30;12.20;99.90
12841;DHT22;6487;48.626;12.486;2024-03-02T15:51:59;12.20;99.90
12841;DHT22;6487;48.626;12.486;2024-03-02T15:54:28;12.30;99.90
12841;DHT22;6487;48.626;12.486;2024-03-02T15:56:57;12.30;99.90
12841;DHT22;6487;48.626;12.486;2024-03-02T15:59:27;12.20;99.90